Time;durP1;ratioP1;P1;durP2;ratioP2;P2;SDS_P1;SDS_P2;PMS_P1;PMS_P2;Temp;Humidity;BMP_temperature;BMP_pressure;BME280_temperature;BME280_humidity;BME280_pressure;Samples;Min_cycle;Max_cycle;Signal;HPM_P1;HPM_P2
2023/03/28 00:00:57;;;;;;;;;;;;;;;8.50;100.00;96178.88;4973283;28;20029;-77
2023/03/28 00:03:23;;;;;;;0.30;0.30;;;;;;;8.40;100.00;96169.91;4956255;28;19921;-75
2023/03/28 00:05:49;;;;;;;11.15;2.15;;;;;;;8.34;100.00;96184.53;4953458;28;20030;-77
2023/03/28 00:08:23;;;;;;;0.40;0.40;;;;;;;8.36;100.00;96185.28;4957635;28;20124;-77
2023/03/28 00:10:49;;;;;;;0.60;0.47;;;;;;;8.13;100.00;96173.63;4951334;28;20031;-76
2023/03/28 00:13:18;;;;;;;0.10;0.10;;;;;;;8.14;100.00;96201.97;4974341;28;20041;-76
2023/03/28 00:15:47;;;;;;;0.20;0.20;;;;;;;8.04;100.00;96187.63;4958552;28;20378;-77
2023/03/28 00:18:13;;;;;;;0.20;0.20;;;;;;;8.03;100.00;96193.03;4957169;28;20450;-76
2023/03/28 00:20:42;;;;;;;0.10;0.10;;;;;;;7.88;100.00;96188.84;4973911;28;20089;-76
2023/03/28 00:23:08;;;;;;;0.10;0.10;;;;;;;8.01;100.00;96193.19;4958170;28;20023;-75
2023/03/28 00:25:35;;;;;;;0.40;0.40;;;;;;;8.01;100.00;96203.81;4957945;28;20037;-76
2023/03/28 00:34:59;;;;;;;0.57;0.57;;;;;;;7.63;100.00;96192.44;4802389;29;20094;-77
2023/03/28 00:37:24;;;;;;;0.10;0.10;;;;;;;7.74;100.00;96181.03;4914217;28;20044;-76
2023/03/28 00:39:50;;;;;;;0.80;0.43;;;;;;;7.81;100.00;96193.78;4954433;28;20035;-75
2023/03/28 00:42:24;;;;;;;0.10;0.10;;;;;;;7.81;100.00;96217.75;4954593;28;20470;-75
2023/03/28 00:44:54;;;;;;;0.28;0.28;;;;;;;7.86;100.00;96236.88;4971289;28;20511;-77
2023/03/28 00:47:57;;;;;;;0.63;0.63;;;;;;;7.96;100.00;96263.69;4957655;28;20037;-76
2023/03/28 00:50:27;;;;;;;0.25;0.15;;;;;;;7.83;100.00;96260.22;4960480;28;20421;-76
2023/03/28 00:53:08;;;;;;;0.10;0.10;;;;;;;7.78;100.00;96217.13;4955167;28;20771;-76
2023/03/28 00:56:04;;;;;;;0.20;0.20;;;;;;;7.55;100.00;96205.44;4974331;28;20030;-77
2023/03/28 00:58:36;;;;;;;0.13;0.13;;;;;;;7.40;100.00;96190.59;4957070;28;20114;-77
2023/03/28 01:01:02;;;;;;;1.00;0.77;;;;;;;7.35;100.00;96187.41;4973748;28;20022;-76
2023/03/28 01:03:44;;;;;;;0.40;0.40;;;;;;;7.13;100.00;96174.78;4956887;28;20486;-79
2023/03/28 01:06:12;;;;;;;0.30;0.30;;;;;;;7.17;100.00;96191.38;4969988;28;20130;-76
2023/03/28 01:08:48;;;;;;;0.10;0.10;;;;;;;7.02;100.00;96186.16;4957549;28;20062;-76
2023/03/28 01:11:14;;;;;;;0.05;0.05;;;;;;;6.98;100.00;96189.97;4957001;28;20061;-78
2023/03/28 01:13:47;;;;;;;0.43;0.30;;;;;;;6.84;100.00;96194.56;4973914;28;20077;-76
2023/03/28 01:16:14;;;;;;;0.10;0.10;;;;;;;6.81;100.00;96198.28;4957383;28;20038;-76
2023/03/28 01:18:40;;;;;;;0.10;0.10;;;;;;;6.78;100.00;96201.16;4972325;28;20073;-77
2023/03/28 01:21:32;;;;;;;0.10;0.10;;;;;;;6.79;100.00;96184.25;4973610;28;20501;-76
2023/03/28 01:24:19;;;;;;;0.10;0.10;;;;;;;6.72;100.00;96174.13;4970512;28;20486;-77
2023/03/28 01:27:14;;;;;;;0.20;0.20;;;;;;;6.65;100.00;96176.38;4960804;28;20037;-76
2023/03/28 01:30:17;;;;;;;0.08;0.08;;;;;;;6.61;100.00;96168.72;4960817;28;20121;-78
2023/03/28 01:33:09;;;;;;;0.32;0.32;;;;;;;6.41;100.00;96167.41;4985639;28;20413;-75
2023/03/28 01:35:50;;;;;;;0.63;0.30;;;;;;;6.22;100.00;96166.94;4973322;28;20031;-77
2023/03/28 01:38:47;;;;;;;0.28;0.28;;;;;;;6.13;100.00;96154.28;4990721;28;20510;-77
2023/03/28 01:41:40;;;;;;;0.25;0.25;;;;;;;5.93;100.00;96167.09;4955683;28;20030;-77
2023/03/28 01:44:31;;;;;;;0.20;0.20;;;;;;;5.85;100.00;96153.47;4970892;28;20116;-76
2023/03/28 01:47:08;;;;;;;0.30;0.30;;;;;;;5.77;100.00;96171.66;4955057;28;20038;-77
2023/03/28 01:49:43;;;;;;;0.43;0.43;;;;;;;5.70;100.00;96180.09;4976664;28;20501;-77
2023/03/28 01:52:36;;;;;;;0.10;0.10;;;;;;;5.63;100.00;96195.56;4993982;28;20026;-78
2023/03/28 01:55:22;;;;;;;0.30;0.30;;;;;;;5.55;100.00;96205.81;4973403;28;20068;-76
2023/03/28 01:58:26;;;;;;;0.10;0.10;;;;;;;5.45;100.00;96188.78;4976676;28;20022;-76
2023/03/28 02:01:06;;;;;;;0.10;0.10;;;;;;;5.36;100.00;96216.72;4937044;29;20098;-76
2023/03/28 02:03:35;;;;;;;0.30;0.30;;;;;;;5.42;100.00;96211.03;4976002;28;20023;-77
2023/03/28 02:06:03;;;;;;;0.35;0.30;;;;;;;5.28;100.00;96195.16;4977131;28;20482;-77
2023/03/28 02:08:31;;;;;;;0.10;0.10;;;;;;;5.27;100.00;96216.44;4976557;28;20371;-76
2023/03/28 02:10:57;;;;;;;0.00;0.00;;;;;;;5.20;100.00;96201.91;4960554;28;20030;-77
2023/03/28 02:13:28;;;;;;;0.45;0.45;;;;;;;5.26;100.00;96212.94;4976373;28;20104;-76
2023/03/28 02:15:56;;;;;;;0.35;0.35;;;;;;;5.19;100.00;96208.13;4976516;28;20026;-78
2023/03/28 02:18:28;;;;;;;0.10;0.10;;;;;;;5.06;100.00;96215.13;4959318;28;20038;-76
2023/03/28 02:21:03;;;;;;;0.17;0.17;;;;;;;5.10;100.00;96206.06;4960436;28;20450;-77
2023/03/28 02:23:35;;;;;;;0.22;0.22;;;;;;;5.13;100.00;96229.72;4960345;28;20042;-76
2023/03/28 02:26:07;;;;;;;0.20;0.20;;;;;;;4.98;100.00;96206.81;4960264;28;20192;-77
2023/03/28 02:28:35;;;;;;;1.73;1.02;;;;;;;5.22;100.00;96240.59;4959896;28;20113;-76
2023/03/28 02:31:02;;;;;;;0.43;0.43;;;;;;;5.20;100.00;96229.22;4960229;28;20101;-77
2023/03/28 02:33:33;;;;;;;0.10;0.10;;;;;;;5.14;100.00;96234.91;4975362;28;20026;-77
2023/03/28 02:36:24;;;;;;;0.35;0.35;;;;;;;5.01;100.00;96238.41;4993777;28;20391;-76
2023/03/28 02:38:59;;;;;;;0.38;0.38;;;;;;;4.96;100.00;96256.38;4975750;28;20022;-76
2023/03/28 02:42:01;;;;;;;0.50;0.50;;;;;;;4.89;100.00;96267.34;4976129;28;20034;-77
2023/03/28 02:44:45;;;;;;;0.43;0.35;;;;;;;4.91;100.00;96284.03;4973953;28;20030;-75
2023/03/28 02:47:37;;;;;;;0.10;0.10;;;;;;;4.85;100.00;96296.78;4989287;28;20026;-77
2023/03/28 02:50:09;;;;;;;0.15;0.15;;;;;;;4.76;100.00;96290.22;4959595;28;20041;-76
2023/03/28 02:52:51;;;;;;;0.30;0.30;;;;;;;4.72;100.00;96309.88;4975764;28;20044;-76
2023/03/28 02:55:53;;;;;;;0.20;0.20;;;;;;;4.79;100.00;96313.88;4989676;28;20034;-77
2023/03/28 02:58:33;;;;;;;1.55;0.98;;;;;;;4.73;100.00;96322.19;4971065;28;20047;-76
2023/03/28 03:01:01;;;;;;;0.25;0.25;;;;;;;4.65;100.00;96305.03;4958713;28;20454;-77
2023/03/28 03:03:27;;;;;;;0.45;0.45;;;;;;;4.61;100.00;96304.38;4959944;28;20034;-77
2023/03/28 03:05:53;;;;;;;0.28;0.28;;;;;;;4.58;100.00;96295.75;4974789;28;20473;-76
2023/03/28 03:08:18;;;;;;;0.40;0.40;;;;;;;4.55;100.00;96306.53;4975785;28;20077;-76
2023/03/28 03:10:44;;;;;;;0.13;0.13;;;;;;;4.50;100.00;96301.47;4958434;28;20041;-77
2023/03/28 03:13:09;;;;;;;0.10;0.10;;;;;;;4.48;100.00;96298.09;4975640;28;20058;-76
2023/03/28 03:15:35;;;;;;;0.20;0.20;;;;;;;4.42;100.00;96301.09;4959425;28;20486;-76
2023/03/28 03:18:01;;;;;;;0.45;0.45;;;;;;;4.48;100.00;96319.25;4958224;28;20088;-76
2023/03/28 03:20:32;;;;;;;0.20;0.20;;;;;;;4.41;100.00;96312.59;4975389;28;20037;-75
2023/03/28 03:22:59;;;;;;;0.20;0.20;;;;;;;4.48;100.00;96323.69;4974715;28;20038;-77
2023/03/28 03:25:25;;;;;;;0.10;0.10;;;;;;;4.47;100.00;96335.22;4959295;28;20089;-76
2023/03/28 03:27:51;;;;;;;0.20;0.20;;;;;;;4.49;100.00;96336.81;4992468;28;20068;-76
2023/03/28 03:30:17;;;;;;;0.40;0.40;;;;;;;4.48;100.00;96331.63;4955914;28;20062;-76
2023/03/28 03:32:44;;;;;;;0.25;0.25;;;;;;;4.46;100.00;96342.28;4972532;28;20045;-77
2023/03/28 03:35:09;;;;;;;0.98;0.65;;;;;;;4.35;100.00;96334.13;4974913;28;20042;-76
2023/03/28 03:37:35;;;;;;;0.40;0.40;;;;;;;4.41;100.00;96347.00;4975182;28;20544;-76
2023/03/28 03:40:01;;;;;;;0.85;0.35;;;;;;;4.34;100.00;96348.28;4973925;28;20073;-76
2023/03/28 03:42:26;;;;;;;0.20;0.20;;;;;;;4.40;100.00;96365.66;4975169;28;20034;-78
2023/03/28 03:44:53;;;;;;;0.30;0.30;;;;;;;4.37;100.00;96361.34;4955715;28;20089;-77
2023/03/28 03:47:18;;;;;;;1.55;1.17;;;;;;;4.39;100.00;96362.13;4958563;28;20531;-77
2023/03/28 03:49:44;;;;;;;0.35;0.35;;;;;;;4.37;100.00;96364.00;4975044;28;20177;-75
2023/03/28 03:52:10;;;;;;;0.68;0.68;;;;;;;4.40;100.00;96377.06;4974565;28;20038;-76
2023/03/28 03:54:35;;;;;;;0.45;0.45;;;;;;;4.35;100.00;96369.41;4958379;28;20030;-77
2023/03/28 03:57:01;;;;;;;0.57;0.57;;;;;;;4.41;100.00;96368.19;4957949;28;20516;-77
2023/03/28 03:59:28;;;;;;;0.50;0.50;;;;;;;4.36;99.55;96376.41;4974123;28;20034;-77
2023/03/28 04:01:54;;;;;;;0.47;0.43;;;;;;;4.24;100.00;96377.09;4974311;28;20066;-77
2023/03/28 04:04:23;;;;;;;0.10;0.10;;;;;;;4.28;98.00;96369.81;4958241;28;20038;-77
2023/03/28 04:06:49;;;;;;;0.20;0.20;;;;;;;4.33;100.00;96405.69;4974540;28;20033;-77
2023/03/28 04:09:14;;;;;;;0.10;0.10;;;;;;;4.31;99.99;96393.47;4974035;28;20039;-77
2023/03/28 04:11:40;;;;;;;0.52;0.52;;;;;;;4.30;100.00;96399.72;4958399;28;20034;-76
2023/03/28 04:14:05;;;;;;;0.20;0.20;;;;;;;4.40;96.39;96400.88;4956612;28;20030;-77
2023/03/28 04:16:33;;;;;;;0.22;0.22;;;;;;;4.40;97.32;96411.47;4958096;28;20381;-76
2023/03/28 04:18:59;;;;;;;0.35;0.35;;;;;;;4.36;95.62;96400.22;4974467;28;20556;-77
2023/03/28 04:21:30;;;;;;;0.20;0.20;;;;;;;4.31;95.08;96414.63;4964472;28;20030;-75
2023/03/28 04:24:00;;;;;;;0.20;0.20;;;;;;;4.28;94.81;96394.47;4974078;28;20037;-76
2023/03/28 04:26:27;;;;;;;0.17;0.17;;;;;;;4.22;95.11;96408.06;4957640;28;20042;-76
2023/03/28 04:28:54;;;;;;;0.32;0.30;;;;;;;4.24;96.43;96421.22;4959485;28;20045;-76
2023/03/28 04:31:20;;;;;;;0.10;0.10;;;;;;;4.16;94.01;96426.91;4955495;28;20113;-77
2023/03/28 04:33:52;;;;;;;0.63;0.45;;;;;;;4.29;95.14;96445.63;4956352;28;20101;-75
2023/03/28 04:36:21;;;;;;;0.17;0.17;;;;;;;4.18;94.46;96429.50;4957461;28;20049;-76
2023/03/28 04:38:46;;;;;;;0.55;0.55;;;;;;;4.23;95.78;96446.81;4974539;28;20037;-77
2023/03/28 04:41:15;;;;;;;0.30;0.30;;;;;;;4.14;94.18;96420.00;4973496;28;20056;-76
2023/03/28 04:43:42;;;;;;;0.50;0.50;;;;;;;4.27;96.49;96448.38;4973832;28;20027;-78
2023/03/28 04:46:08;;;;;;;0.10;0.10;;;;;;;4.16;93.46;96424.28;4957543;28;20036;-77
2023/03/28 04:48:34;;;;;;;0.13;0.13;;;;;;;4.19;93.49;96428.53;4973082;28;20417;-76
2023/03/28 04:51:00;;;;;;;2.28;0.65;;;;;;;4.17;92.27;96431.28;4957441;28;20026;-77
2023/03/28 04:53:25;;;;;;;0.10;0.10;;;;;;;4.19;93.34;96436.47;4972899;28;20066;-76
2023/03/28 04:55:52;;;;;;;4.90;0.90;;;;;;;4.16;89.29;96423.41;4956866;28;20544;-77
2023/03/28 04:58:19;;;;;;;0.20;0.20;;;;;;;4.20;91.33;96440.84;4970691;28;20030;-77
2023/03/28 05:00:45;;;;;;;0.10;0.10;;;;;;;4.29;89.08;96435.03;4955335;28;20054;-76
2023/03/28 05:03:17;;;;;;;0.20;0.20;;;;;;;4.26;88.20;96435.22;4955718;28;20116;-78
2023/03/28 05:05:44;;;;;;;0.20;0.20;;;;;;;4.54;87.91;96467.16;4951185;28;20053;-77
2023/03/28 05:08:11;;;;;;;0.40;0.40;;;;;;;4.60;87.46;96450.06;4971202;28;20249;-77
2023/03/28 05:10:37;;;;;;;0.28;0.28;;;;;;;4.68;83.42;96448.69;4971147;28;20347;-77
2023/03/28 05:13:03;;;;;;;0.32;0.30;;;;;;;4.64;82.22;96426.00;4971130;28;20469;-76
2023/03/28 05:15:28;;;;;;;0.10;0.10;;;;;;;4.80;80.03;96448.00;4954705;28;20034;-77
2023/03/28 05:17:54;;;;;;;0.13;0.13;;;;;;;4.99;80.04;96444.28;4971048;28;20115;-76
2023/03/28 05:20:20;;;;;;;7.20;0.98;;;;;;;5.19;78.61;96454.63;4952868;28;20479;-77
2023/03/28 05:22:46;;;;;;;0.30;0.30;;;;;;;5.56;75.83;96448.84;4957619;28;20026;-77
2023/03/28 05:25:11;;;;;;;0.40;0.40;;;;;;;6.30;69.70;96457.56;4958812;28;20030;-77
2023/03/28 05:27:37;;;;;;;0.30;0.20;;;;;;;7.13;67.16;96469.91;4957970;28;20022;-78
2023/03/28 05:30:06;;;;;;;0.20;0.20;;;;;;;7.79;61.10;96469.84;4958379;28;20053;-77
2023/03/28 05:32:32;;;;;;;0.80;0.47;;;;;;;8.45;58.51;96444.84;4957385;28;20490;-77
2023/03/28 05:34:57;;;;;;;0.50;0.50;;;;;;;8.70;56.91;96439.47;4958645;28;20049;-76
2023/03/28 05:37:23;;;;;;;0.10;0.10;;;;;;;8.39;56.77;96431.94;4958806;28;20489;-78
2023/03/28 05:39:49;;;;;;;0.30;0.30;;;;;;;7.86;57.14;96425.03;4942741;28;20528;-78
2023/03/28 05:42:14;;;;;;;1.30;0.47;;;;;;;8.10;58.75;96431.31;4974312;28;20436;-77
2023/03/28 05:44:40;;;;;;;1.38;1.23;;;;;;;9.36;54.39;96446.09;4974923;28;20034;-77
2023/03/28 05:47:06;;;;;;;0.77;0.57;;;;;;;9.02;53.28;96416.59;4958384;28;20026;-78
2023/03/28 05:49:31;;;;;;;0.10;0.10;;;;;;;9.68;51.58;96417.84;4958371;28;20088;-77
2023/03/28 05:51:57;;;;;;;0.10;0.10;;;;;;;9.75;51.46;96414.56;4974658;28;20038;-77
2023/03/28 05:54:22;;;;;;;0.00;0.00;;;;;;;9.70;51.63;96402.56;4958357;28;20045;-78
2023/03/28 05:56:48;;;;;;;0.60;0.32;;;;;;;10.70;48.84;96416.03;4956721;28;20042;-77
2023/03/28 05:59:13;;;;;;;0.25;0.17;;;;;;;11.49;48.72;96422.84;4958263;28;20030;-75
2023/03/28 06:01:39;;;;;;;0.00;0.00;;;;;;;10.84;48.58;96391.66;4974241;28;20033;-76
2023/03/28 06:04:05;;;;;;;0.13;0.13;;;;;;;9.95;49.50;96382.81;4958346;28;20117;-76
2023/03/28 06:06:32;;;;;;;0.25;0.20;;;;;;;10.05;48.79;96387.34;4958133;28;20091;-76
2023/03/28 06:08:58;;;;;;;0.35;0.20;;;;;;;9.78;50.29;96400.16;4958488;28;20426;-75
2023/03/28 06:11:24;;;;;;;0.22;0.22;;;;;;;9.80;49.52;96401.75;4973701;28;20045;-77
2023/03/28 06:13:50;;;;;;;1.10;0.60;;;;;;;9.10;50.09;96387.56;4974563;28;20022;-77
2023/03/28 06:16:15;;;;;;;0.73;0.73;;;;;;;9.33;51.47;96425.00;4973955;28;20516;-75
2023/03/28 06:18:41;;;;;;;1.23;0.52;;;;;;;9.82;50.07;96423.81;4974112;28;20454;-75
2023/03/28 06:21:06;;;;;;;0.00;0.00;;;;;;;9.43;50.16;96404.66;4974130;28;20030;-77
2023/03/28 06:23:32;;;;;;;0.10;0.10;;;;;;;8.66;51.88;96419.31;4957543;28;20045;-77
2023/03/28 06:25:58;;;;;;;0.00;0.00;;;;;;;8.72;52.25;96434.84;4973670;28;20070;-76
2023/03/28 06:28:23;;;;;;;0.15;0.15;;;;;;;8.97;51.88;96447.25;4957656;28;20050;-76
2023/03/28 06:30:49;;;;;;;0.60;0.60;;;;;;;8.48;52.20;96452.63;4957123;28;20027;-78
2023/03/28 06:33:15;;;;;;;0.32;0.20;;;;;;;8.90;52.82;96465.50;4973916;28;20037;-76
2023/03/28 06:35:41;;;;;;;0.45;0.45;;;;;;;9.26;51.75;96460.13;4973283;28;20054;-77
2023/03/28 06:38:06;;;;;;;0.13;0.13;;;;;;;9.00;50.57;96445.22;4957658;28;20038;-78
2023/03/28 06:40:32;;;;;;;0.65;0.65;;;;;;;8.61;52.14;96453.44;4957315;28;20058;-78
2023/03/28 06:42:57;;;;;;;3.58;2.50;;;;;;;9.88;50.00;96502.63;4973557;28;20026;-75
2023/03/28 06:45:23;;;;;;;5.47;2.55;;;;;;;10.09;49.51;96505.50;4973372;28;20032;-78
2023/03/28 06:47:49;;;;;;;7.88;4.45;;;;;;;10.62;48.58;96495.97;4938558;28;20039;-77
2023/03/28 06:50:15;;;;;;;17.52;9.35;;;;;;;11.93;46.00;96489.66;4953210;28;20077;-76
2023/03/28 06:52:41;;;;;;;12.73;7.43;;;;;;;12.06;44.61;96479.56;4956813;28;20123;-78
2023/03/28 06:55:07;;;;;;;7.97;2.75;;;;;;;10.93;45.81;96431.03;4954122;28;20027;-76
2023/03/28 06:57:32;;;;;;;25.92;11.07;;;;;;;11.70;45.35;96456.75;4957254;28;20034;-77
2023/03/28 06:59:58;;;;;;;3.97;2.55;;;;;;;12.21;44.36;96466.72;4954263;28;20037;-77
2023/03/28 07:02:23;;;;;;;3.00;2.20;;;;;;;11.88;44.22;96438.25;4957836;28;20185;-77
2023/03/28 07:04:49;;;;;;;4.72;2.95;;;;;;;11.92;43.56;96445.06;4945919;28;20026;-79
2023/03/28 07:07:14;;;;;;;8.27;5.18;;;;;;;11.39;44.54;96439.69;4957284;28;20037;-79
2023/03/28 07:09:40;;;;;;;26.30;13.02;;;;;;;12.25;44.80;96474.34;4973053;28;20528;-78
2023/03/28 07:12:06;;;;;;;4.60;3.00;;;;;;;13.63;41.37;96499.63;4957308;28;20028;-76
2023/03/28 07:14:31;;;;;;;4.72;2.03;;;;;;;13.97;40.19;96482.13;4972964;28;20053;-77
2023/03/28 07:16:57;;;;;;;5.07;3.08;;;;;;;12.55;42.57;96467.34;4953918;28;20113;-78
2023/03/28 07:19:23;;;;;;;4.55;2.80;;;;;;;12.16;42.22;96459.06;4969299;28;20436;-78
2023/03/28 07:21:48;;;;;;;4.75;2.60;;;;;;;11.49;43.53;96452.31;4956824;28;20030;-77
2023/03/28 07:24:14;;;;;;;5.15;2.80;;;;;;;10.55;45.49;96454.69;4957085;28;20453;-76
2023/03/28 07:26:39;;;;;;;3.88;2.42;;;;;;;10.38;46.11;96485.41;4956332;28;20490;-76
2023/03/28 07:29:05;;;;;;;4.38;3.25;;;;;;;10.17;47.24;96492.41;4956812;28;20022;-76
2023/03/28 07:31:31;;;;;;;3.35;2.28;;;;;;;12.04;44.33;96524.44;4956917;28;20066;-76
2023/03/28 07:33:57;;;;;;;3.83;1.67;;;;;;;13.66;41.02;96545.03;4956546;28;20887;-77
2023/03/28 07:36:23;;;;;;;2.10;1.70;;;;;;;14.07;40.40;96547.50;4956445;28;20054;-77
2023/03/28 07:38:49;;;;;;;3.20;1.88;;;;;;;15.03;38.00;96525.00;4972268;28;20027;-76
2023/03/28 07:41:15;;;;;;;3.17;1.95;;;;;;;14.37;38.39;96505.31;4954990;28;20022;-78
2023/03/28 07:43:40;;;;;;;7.45;2.22;;;;;;;14.16;39.44;96494.69;4955994;28;20529;-76
2023/03/28 07:46:08;;;;;;;3.85;2.08;;;;;;;14.97;37.93;96506.75;4971935;28;20076;-77
2023/03/28 07:48:35;;;;;;;3.80;2.10;;;;;;;14.58;38.99;96512.22;4956160;28;20068;-77
2023/03/28 07:51:02;;;;;;;5.50;2.40;;;;;;;14.93;38.15;96483.78;4955950;28;20113;-78
2023/03/28 07:53:28;;;;;;;3.60;2.05;;;;;;;14.72;37.40;96478.63;4956470;28;20540;-79
2023/03/28 07:55:53;;;;;;;1.98;1.70;;;;;;;13.16;40.44;96482.44;4972163;28;20061;-78
2023/03/28 07:58:19;;;;;;;2.45;1.90;;;;;;;13.96;39.02;96503.78;4956320;28;20038;-78
2023/03/28 08:00:45;;;;;;;3.42;1.90;;;;;;;14.88;37.27;96502.25;4972479;28;20088;-80
2023/03/28 08:03:12;;;;;;;2.60;1.92;;;;;;;15.30;36.56;96492.69;4989780;28;20031;-76
2023/03/28 08:05:38;;;;;;;3.28;2.05;;;;;;;15.65;36.60;96492.81;4956105;28;20044;-77
2023/03/28 08:08:05;;;;;;;4.47;1.52;;;;;;;14.62;36.56;96416.75;4971806;28;20428;-80
2023/03/28 08:10:31;;;;;;;2.85;2.20;;;;;;;13.56;38.20;96437.56;4949683;28;20035;-77
2023/03/28 08:12:57;;;;;;;3.05;1.88;;;;;;;12.37;39.60;96449.16;4954372;28;20049;-79
2023/03/28 08:15:23;;;;;;;2.72;1.90;;;;;;;11.38;41.32;96435.28;4972338;28;20896;-76
2023/03/28 08:17:49;;;;;;;3.58;2.50;;;;;;;11.39;42.61;96470.94;4971803;28;20109;-79
2023/03/28 08:20:14;;;;;;;18.65;9.65;;;;;;;11.23;42.83;96490.09;4972141;28;20065;-79
2023/03/28 08:22:40;;;;;;;3.63;2.70;;;;;;;10.39;42.66;96481.78;4952603;28;20039;-78
2023/03/28 08:25:06;;;;;;;5.25;2.65;;;;;;;9.60;44.04;96468.28;4970700;28;20065;-78
2023/03/28 08:27:32;;;;;;;9.45;5.07;;;;;;;9.65;44.22;96508.84;4971970;28;20097;-78
2023/03/28 08:29:58;;;;;;;2.65;2.00;;;;;;;9.15;44.10;96475.25;4948665;28;20038;-78
2023/03/28 08:32:24;;;;;;;2.83;2.03;;;;;;;9.33;44.03;96505.91;4957764;28;20048;-78
2023/03/28 08:34:49;;;;;;;3.00;1.90;;;;;;;9.30;44.48;96506.13;4957240;28;20050;-78
2023/03/28 08:37:15;;;;;;;3.67;2.08;;;;;;;10.54;44.17;96570.59;4973978;28;20026;-77
2023/03/28 08:39:41;;;;;;;8.75;4.93;;;;;;;12.41;40.56;96597.25;4957948;28;20030;-77
2023/03/28 08:42:42;;;;;;;4.32;2.75;;;;;;;13.44;37.90;96604.38;4974104;28;20030;-77
2023/03/28 08:45:16;;;;;;;2.53;1.80;;;;;;;13.64;37.68;96597.22;4957599;28;20034;-80
2023/03/28 08:48:12;;;;;;;2.67;1.92;;;;;;;13.05;37.76;96554.97;4974477;28;20042;-79
2023/03/28 08:50:45;;;;;;;4.85;1.98;;;;;;;12.93;37.42;96546.19;4979527;28;20419;-77
2023/03/28 08:53:25;;;;;;;3.40;2.00;;;;;;;13.40;36.71;96555.44;4973322;28;20116;-77
2023/03/28 08:55:51;;;;;;;2.60;1.70;;;;;;;12.82;37.30;96550.78;4954838;28;20125;-82
2023/03/28 08:58:20;;;;;;;3.25;1.50;;;;;;;12.53;37.59;96539.88;4961362;28;20121;-78
2023/03/28 09:00:47;;;;;;;2.55;1.83;;;;;;;10.84;40.06;96514.72;4962349;28;20108;-78
2023/03/28 09:03:21;;;;;;;3.17;2.00;;;;;;;10.52;40.62;96508.41;4961864;28;20034;-79
2023/03/28 09:06:03;;;;;;;3.08;1.90;;;;;;;10.06;40.47;96511.06;4962033;28;20041;-78
2023/03/28 09:09:00;;;;;;;4.32;1.80;;;;;;;9.72;41.85;96524.28;4955223;28;20409;-80
2023/03/28 09:11:44;;;;;;;3.83;2.40;;;;;;;9.70;42.95;96544.91;4950603;28;20109;-79
2023/03/28 09:14:28;;;;;;;4.97;2.10;;;;;;;9.61;43.51;96539.41;4977914;28;20497;-80
2023/03/28 09:17:38;;;;;;;4.00;1.98;;;;;;;9.33;42.91;96532.59;4977996;28;20477;-78
2023/03/28 09:20:18;;;;;;;3.60;1.88;;;;;;;9.80;42.15;96569.97;4960699;28;20413;-80
2023/03/28 09:23:22;;;;;;;3.25;1.98;;;;;;;10.13;42.18;96593.34;4961847;28;20026;-78
2023/03/28 09:25:56;;;;;;;4.95;2.78;;;;;;;10.23;43.00;96602.38;4935340;29;20108;-79
2023/03/28 09:28:40;;;;;;;2.50;1.90;;;;;;;10.36;41.62;96577.38;4918499;29;20036;-80
2023/03/28 09:31:09;;;;;;;5.55;3.05;;;;;;;10.54;42.30;96602.69;4956695;28;20511;-80
2023/03/28 09:33:39;;;;;;;7.97;2.60;;;;;;;10.40;42.07;96589.56;4977515;28;20046;-80
2023/03/28 09:36:20;;;;;;;4.05;2.47;;;;;;;10.83;41.05;96603.94;4961453;28;20133;-79
2023/03/28 09:38:56;;;;;;;4.05;2.30;;;;;;;10.10;42.58;96572.16;4968238;28;20019;-80
2023/03/28 09:41:34;;;;;;;3.67;2.17;;;;;;;9.40;42.78;96560.53;4961018;28;20034;-81
2023/03/28 09:44:01;;;;;;;4.80;2.80;;;;;;;9.44;44.10;96570.03;4960944;28;20045;-79
2023/03/28 09:46:37;;;;;;;4.57;2.83;;;;;;;9.70;43.56;96589.44;4961118;28;20548;-80
2023/03/28 09:49:03;;;;;;;4.93;3.22;;;;;;;10.30;42.66;96603.59;4977622;28;20045;-79
2023/03/28 09:51:28;;;;;;;28.10;11.57;;;;;;;10.41;43.26;96613.47;4977110;28;20042;-82
2023/03/28 09:53:54;;;;;;;5.10;3.30;;;;;;;10.14;43.42;96595.03;4961767;28;20034;-82
2023/03/28 09:56:29;;;;;;;25.60;12.55;;;;;;;10.04;43.84;96609.16;4977989;28;20034;-82
2023/03/28 09:58:56;;;;;;;8.32;3.63;;;;;;;9.88;43.71;96595.25;4961429;28;20541;-80
2023/03/28 10:01:30;;;;;;;6.85;3.42;;;;;;;10.26;43.13;96604.81;4976978;28;20039;-80
2023/03/28 10:03:56;;;;;;;8.63;3.35;;;;;;;10.85;41.89;96631.44;4977190;28;20031;-80
2023/03/28 10:06:31;;;;;;;4.95;2.40;;;;;;;11.24;39.85;96632.81;4960520;28;20097;-80
2023/03/28 10:09:25;;;;;;;3.70;2.20;;;;;;;12.03;36.51;96613.84;4960011;28;20451;-80
2023/03/28 10:12:03;;;;;;;8.50;3.28;;;;;;;12.28;37.35;96628.75;4951304;28;20034;-81
2023/03/28 10:14:31;;;;;;;3.50;2.50;;;;;;;12.48;38.29;96619.91;4961805;28;20062;-79
2023/03/28 10:17:01;;;;;;;3.97;2.60;;;;;;;12.46;37.67;96633.41;4994340;28;20410;-79
2023/03/28 10:19:31;;;;;;;14.43;7.45;;;;;;;12.71;38.64;96652.81;4976805;28;20096;-82
2023/03/28 10:21:57;;;;;;;5.50;2.72;;;;;;;12.42;37.79;96621.28;4969260;28;20038;-81
2023/03/28 10:24:24;;;;;;;7.90;4.15;;;;;;;12.30;37.40;96621.44;4976184;28;20045;-81
2023/03/28 10:26:50;;;;;;;3.95;2.45;;;;;;;11.71;35.35;96546.84;4960799;28;20064;-78
2023/03/28 10:29:16;;;;;;;5.68;3.45;;;;;;;11.89;34.34;96569.44;4960631;28;20040;-79
2023/03/28 10:31:47;;;;;;;4.28;2.03;;;;;;;11.71;34.22;96568.28;4976319;28;20038;-79
2023/03/28 10:34:27;;;;;;;2.10;1.90;;;;;;;12.10;33.03;96579.34;4976642;28;20176;-79
2023/03/28 10:36:52;;;;;;;3.97;2.28;;;;;;;12.04;34.32;96567.31;4960452;28;20042;-79
2023/03/28 10:39:27;;;;;;;7.63;2.28;;;;;;;12.42;33.80;96583.72;4960501;28;20053;-79
2023/03/28 10:41:58;;;;;;;10.88;1.70;;;;;;;12.78;33.27;96593.13;4960442;28;20410;-79
2023/03/28 10:44:35;;;;;;;5.97;3.40;;;;;;;14.14;32.13;96620.41;4957637;28;20088;-80
2023/03/28 10:47:07;;;;;;;5.20;3.08;;;;;;;12.37;35.10;96564.47;4976996;28;20125;-81
2023/03/28 10:49:44;;;;;;;3.33;2.45;;;;;;;11.55;37.58;96566.94;4960708;28;20098;-80
2023/03/28 10:52:23;;;;;;;6.65;3.17;;;;;;;11.87;37.17;96584.78;4961099;28;20030;-80
2023/03/28 10:55:17;;;;;;;4.30;2.70;;;;;;;12.13;37.11;96595.16;4975174;28;20037;-80
2023/03/28 10:57:49;;;;;;;3.85;2.72;;;;;;;11.79;37.72;96591.75;4963105;28;20129;-79
2023/03/28 11:00:24;;;;;;;6.88;4.63;;;;;;;11.99;37.72;96611.56;4976752;28;20030;-83
2023/03/28 11:03:15;;;;;;;4.60;2.85;;;;;;;13.37;35.75;96651.56;4957323;28;20406;-83
2023/03/28 11:05:54;;;;;;;3.30;2.42;;;;;;;15.85;32.33;96698.47;4975373;28;20038;-80
2023/03/28 11:08:31;;;;;;;5.28;3.30;;;;;;;16.27;31.55;96682.66;4959855;28;20034;-80
2023/03/28 11:11:03;;;;;;;3.38;2.30;;;;;;;13.28;34.59;96575.34;4959516;28;20521;-81
2023/03/28 11:13:46;;;;;;;4.15;2.85;;;;;;;13.63;34.77;96611.66;4957204;28;20038;-81
2023/03/28 11:16:31;;;;;;;3.03;2.00;;;;;;;12.69;34.64;96563.56;4993217;28;20477;-80
2023/03/28 11:19:11;;;;;;;2.15;1.80;;;;;;;11.15;37.25;96538.06;4974738;28;20034;-80
2023/03/28 11:21:46;;;;;;;4.50;2.47;;;;;;;11.37;37.75;96561.25;4992908;28;20502;-79
2023/03/28 11:24:22;;;;;;;3.05;2.20;;;;;;;13.46;36.02;96640.00;4975565;28;20034;-80
2023/03/28 11:27:16;;;;;;;3.15;2.25;;;;;;;15.48;32.87;96693.06;4959298;28;20038;-80
2023/03/28 11:29:50;;;;;;;3.30;2.00;;;;;;;16.93;31.51;96695.84;4962043;28;20053;-80
2023/03/28 11:32:36;;;;;;;2.88;2.22;;;;;;;16.40;31.30;96666.91;4973861;28;20054;-79
2023/03/28 11:35:31;;;;;;;5.00;2.10;;;;;;;15.83;31.58;96637.59;4975733;28;20121;-79
2023/03/28 11:38:20;;;;;;;3.97;2.58;;;;;;;15.32;31.82;96598.47;4955879;28;20504;-79
2023/03/28 11:40:55;;;;;;;3.28;2.40;;;;;;;13.98;32.05;96561.78;4957208;28;20419;-78
2023/03/28 11:43:30;;;;;;;3.92;2.67;;;;;;;12.98;31.71;96527.81;4975256;28;20948;-80
2023/03/28 11:46:02;;;;;;;3.05;1.98;;;;;;;13.50;30.19;96539.38;4959029;28;20448;-78
2023/03/28 11:48:43;;;;;;;2.72;1.90;;;;;;;13.29;29.44;96539.41;4959057;28;20034;-79
2023/03/28 11:51:44;;;;;;;4.35;2.30;;;;;;;12.88;30.78;96534.16;4974588;28;20081;-78
2023/03/28 11:54:45;;;;;;;2.67;2.08;;;;;;;13.33;29.30;96537.31;4939586;28;20038;-81
2023/03/28 11:57:27;;;;;;;2.63;1.80;;;;;;;12.87;29.38;96521.72;4955174;28;20038;-82
2023/03/28 12:00:27;;;;;;;2.03;1.67;;;;;;;13.74;28.81;96552.41;4960289;28;20061;-80
2023/03/28 12:03:21;;;;;;;4.35;2.40;;;;;;;15.78;26.33;96640.72;4975201;28;20046;-80
2023/03/28 12:05:53;;;;;;;5.00;2.70;;;;;;;17.42;24.95;96679.00;4992678;28;20026;-79